22.7°F
Current conditions from King Hill
Updated every 5 minutes
 
  Sunday December 21, 2014

Station Historical Data
Daily Summary for March 16, 2012 Units:  Both    English   Metric
« Previous Day
Next Day »
Daily Weekly Monthly Yearly Custom
  High: Low: Average:
Temperature: 44.6 °F /  7 °C 38.3 °F /  3.5 °C 42.2 °F /  5.7 °C
Dew Point: 41.4 °F /  5.2 °C 37.0 °F /  2.8 °C 39.8 °F /  4.3 °C
Humidity: 95% 86% 91%
Wind Speed: 12.0mph /  19.3km/h - 6.4mph /  10.3km/h
Wind Gust: 26.0mph /  41.8km/h - -
Wind- - SSW
Pressure: 30.22 in /  1023.2 hPa 30.01 in /  1016.1 hPa -
Precipitation: 0.41 in /  10.4 mm    
Historical Graphs
 
 
Tabular Data for March 16, 2012
Time Temperature Dew Point Pressure Wind Wind Speed Wind Gust Humidity Daily Rainfall
00:00 43.9 °F /  6.6 °C 40.0 °F /  4.4 °C 30.13in /  1020.2hPa South 8.0mph /  12.9km/h 14.0mph /  22.5km/h 86% 0.11in /  2.8mm
00:05 43.8 °F /  6.6 °C 39.9 °F /  4.4 °C 30.12in /  1019.9hPa South 9.0mph /  14.5km/h 17.0mph /  27.4km/h 86% 0.00in /  0mm
00:10 43.9 °F /  6.6 °C 40.0 °F /  4.4 °C 30.12in /  1019.9hPa SSW 9.0mph /  14.5km/h 19.0mph /  30.6km/h 86% 0.01in /  0.3mm
00:15 43.9 °F /  6.6 °C 40.0 °F /  4.4 °C 30.12in /  1019.9hPa South 8.0mph /  12.9km/h 19.0mph /  30.6km/h 86% 0.01in /  0.3mm
00:20 43.9 °F /  6.6 °C 40.3 °F /  4.6 °C 30.12in /  1019.9hPa South 7.0mph /  11.3km/h 16.0mph /  25.7km/h 87% 0.01in /  0.3mm
00:25 43.9 °F /  6.6 °C 40.3 °F /  4.6 °C 30.13in /  1020.2hPa South 6.0mph /  9.7km/h 17.0mph /  27.4km/h 87% 0.01in /  0.3mm
00:30 43.9 °F /  6.6 °C 40.3 °F /  4.6 °C 30.13in /  1020.2hPa SSW 6.0mph /  9.7km/h 17.0mph /  27.4km/h 87% 0.01in /  0.3mm
00:35 43.9 °F /  6.6 °C 40.3 °F /  4.6 °C 30.13in /  1020.2hPa SSW 5.0mph /  8km/h 13.0mph /  20.9km/h 87% 0.01in /  0.3mm
00:40 43.9 °F /  6.6 °C 40.3 °F /  4.6 °C 30.13in /  1020.2hPa SSW 7.0mph /  11.3km/h 13.0mph /  20.9km/h 87% 0.01in /  0.3mm
00:45 43.9 °F /  6.6 °C 40.3 °F /  4.6 °C 30.13in /  1020.2hPa SSW 7.0mph /  11.3km/h 15.0mph /  24.1km/h 87% 0.01in /  0.3mm
00:50 43.9 °F /  6.6 °C 40.6 °F /  4.8 °C 30.13in /  1020.2hPa SSW 5.0mph /  8km/h 15.0mph /  24.1km/h 88% 0.01in /  0.3mm
01:00 44.1 °F /  6.7 °C 40.8 °F /  4.9 °C 30.12in /  1019.9hPa SSW 6.0mph /  9.7km/h 13.0mph /  20.9km/h 88% 0.01in /  0.3mm
01:05 44.1 °F /  6.7 °C 40.8 °F /  4.9 °C 30.12in /  1019.9hPa SSW 5.0mph /  8km/h 16.0mph /  25.7km/h 88% 0.01in /  0.3mm
01:10 44.1 °F /  6.7 °C 40.8 °F /  4.9 °C 30.12in /  1019.9hPa SSW 6.0mph /  9.7km/h 16.0mph /  25.7km/h 88% 0.01in /  0.3mm
01:15 44.0 °F /  6.7 °C 40.7 °F /  4.8 °C 30.12in /  1019.9hPa SSW 6.0mph /  9.7km/h 12.0mph /  19.3km/h 88% 0.01in /  0.3mm
01:20 44.0 °F /  6.7 °C 40.7 °F /  4.8 °C 30.11in /  1019.5hPa SSW 8.0mph /  12.9km/h 15.0mph /  24.1km/h 88% 0.01in /  0.3mm
01:25 44.0 °F /  6.7 °C 40.7 °F /  4.8 °C 30.11in /  1019.5hPa South 8.0mph /  12.9km/h 15.0mph /  24.1km/h 88% 0.01in /  0.3mm
01:30 44.1 °F /  6.7 °C 40.8 °F /  4.9 °C 30.11in /  1019.5hPa SSW 7.0mph /  11.3km/h 13.0mph /  20.9km/h 88% 0.01in /  0.3mm
01:40 44.2 °F /  6.8 °C 40.9 °F /  4.9 °C 30.10in /  1019.2hPa South 9.0mph /  14.5km/h 18.0mph /  29km/h 88% 0.01in /  0.3mm
01:50 44.4 °F /  6.9 °C 40.8 °F /  4.9 °C 30.09in /  1018.8hPa South 7.0mph /  11.3km/h 15.0mph /  24.1km/h 87% 0.01in /  0.3mm
01:55 44.5 °F /  6.9 °C 41.2 °F /  5.1 °C 30.09in /  1018.8hPa South 7.0mph /  11.3km/h 17.0mph /  27.4km/h 88% 0.01in /  0.3mm
02:00 44.5 °F /  6.9 °C 40.9 °F /  4.9 °C 30.10in /  1019.2hPa SSW 7.0mph /  11.3km/h 17.0mph /  27.4km/h 87% 0.01in /  0.3mm
02:05 44.5 °F /  6.9 °C 40.9 °F /  4.9 °C 30.10in /  1019.2hPa South 5.0mph /  8km/h 11.0mph /  17.7km/h 87% 0.01in /  0.3mm
02:10 44.5 °F /  6.9 °C 41.2 °F /  5.1 °C 30.10in /  1019.2hPa SSW 4.0mph /  6.4km/h 10.0mph /  16.1km/h 88% 0.01in /  0.3mm
02:15 44.4 °F /  6.9 °C 41.1 °F /  5.1 °C 30.11in /  1019.5hPa SSW 5.0mph /  8km/h 9.0mph /  14.5km/h 88% 0.01in /  0.3mm
02:20 44.4 °F /  6.9 °C 41.1 °F /  5.1 °C 30.11in /  1019.5hPa SSW 4.0mph /  6.4km/h 9.0mph /  14.5km/h 88% 0.01in /  0.3mm
02:25 44.5 °F /  6.9 °C 41.2 °F /  5.1 °C 30.11in /  1019.5hPa SSW 5.0mph /  8km/h 12.0mph /  19.3km/h 88% 0.01in /  0.3mm
02:30 44.5 °F /  6.9 °C 41.2 °F /  5.1 °C 30.11in /  1019.5hPa SSW 6.0mph /  9.7km/h 12.0mph /  19.3km/h 88% 0.01in /  0.3mm
02:35 44.5 °F /  6.9 °C 41.2 °F /  5.1 °C 30.11in /  1019.5hPa SSW 7.0mph /  11.3km/h 17.0mph /  27.4km/h 88% 0.01in /  0.3mm
02:40 44.6 °F /  7 °C 41.0 °F /  5 °C 30.11in /  1019.5hPa South 8.0mph /  12.9km/h 18.0mph /  29km/h 87% 0.01in /  0.3mm
02:45 44.5 °F /  6.9 °C 40.9 °F /  4.9 °C 30.11in /  1019.5hPa SSW 8.0mph /  12.9km/h 18.0mph /  29km/h 87% 0.01in /  0.3mm
02:50 44.3 °F /  6.8 °C 40.7 °F /  4.8 °C 30.11in /  1019.5hPa SSW 4.0mph /  6.4km/h 15.0mph /  24.1km/h 87% 0.01in /  0.3mm
02:55 44.2 °F /  6.8 °C 40.6 °F /  4.8 °C 30.10in /  1019.2hPa South 6.0mph /  9.7km/h 15.0mph /  24.1km/h 87% 0.01in /  0.3mm
03:00 44.0 °F /  6.7 °C 40.7 °F /  4.8 °C 30.10in /  1019.2hPa SSW 6.0mph /  9.7km/h 12.0mph /  19.3km/h 88% 0.02in /  0.5mm
03:05 43.9 °F /  6.6 °C 40.6 °F /  4.8 °C 30.09in /  1018.8hPa South 7.0mph /  11.3km/h 13.0mph /  20.9km/h 88% 0.03in /  0.8mm
03:10 43.8 °F /  6.6 °C 40.5 °F /  4.7 °C 30.08in /  1018.5hPa South 9.0mph /  14.5km/h 17.0mph /  27.4km/h 88% 0.04in /  1mm
03:15 43.8 °F /  6.6 °C 40.8 °F /  4.9 °C 30.08in /  1018.5hPa SSW 8.0mph /  12.9km/h 17.0mph /  27.4km/h 89% 0.05in /  1.3mm
03:20 43.8 °F /  6.6 °C 40.8 °F /  4.9 °C 30.08in /  1018.5hPa SSW 9.0mph /  14.5km/h 18.0mph /  29km/h 89% 0.05in /  1.3mm
03:25 43.8 °F /  6.6 °C 40.8 °F /  4.9 °C 30.08in /  1018.5hPa South 8.0mph /  12.9km/h 18.0mph /  29km/h 89% 0.05in /  1.3mm
03:30 43.7 °F /  6.5 °C 40.7 °F /  4.8 °C 30.07in /  1018.2hPa South 10.0mph /  16.1km/h 16.0mph /  25.7km/h 89% 0.06in /  1.5mm
03:40 43.7 °F /  6.5 °C 40.7 °F /  4.8 °C 30.08in /  1018.5hPa SSW 9.0mph /  14.5km/h 18.0mph /  29km/h 89% 0.06in /  1.5mm
03:45 43.7 °F /  6.5 °C 40.7 °F /  4.8 °C 30.08in /  1018.5hPa South 7.0mph /  11.3km/h 18.0mph /  29km/h 89% 0.06in /  1.5mm
03:55 43.7 °F /  6.5 °C 40.7 °F /  4.8 °C 30.07in /  1018.2hPa South 7.0mph /  11.3km/h 16.0mph /  25.7km/h 89% 0.06in /  1.5mm
04:00 43.7 °F /  6.5 °C 40.7 °F /  4.8 °C 30.07in /  1018.2hPa South 4.0mph /  6.4km/h 16.0mph /  25.7km/h 89% 0.06in /  1.5mm
04:05 43.7 °F /  6.5 °C 40.7 °F /  4.8 °C 30.07in /  1018.2hPa SSW 5.0mph /  8km/h 12.0mph /  19.3km/h 89% 0.06in /  1.5mm
04:10 43.7 °F /  6.5 °C 40.7 °F /  4.8 °C 30.07in /  1018.2hPa South 7.0mph /  11.3km/h 12.0mph /  19.3km/h 89% 0.06in /  1.5mm
04:15 43.7 °F /  6.5 °C 40.7 °F /  4.8 °C 30.07in /  1018.2hPa South 6.0mph /  9.7km/h 12.0mph /  19.3km/h 89% 0.06in /  1.5mm
04:20 43.7 °F /  6.5 °C 40.7 °F /  4.8 °C 30.07in /  1018.2hPa South 6.0mph /  9.7km/h 10.0mph /  16.1km/h 89% 0.06in /  1.5mm
04:30 43.7 °F /  6.5 °C 40.7 °F /  4.8 °C 30.08in /  1018.5hPa SSW 5.0mph /  8km/h 10.0mph /  16.1km/h 89% 0.07in /  1.8mm
04:35 43.6 °F /  6.4 °C 40.6 °F /  4.8 °C 30.08in /  1018.5hPa SSW 2.0mph /  3.2km/h 10.0mph /  16.1km/h 89% 0.08in /  2mm
04:45 43.4 °F /  6.3 °C 40.1 °F /  4.5 °C 30.09in /  1018.8hPa SSW 3.0mph /  4.8km/h 7.0mph /  11.3km/h 88% 0.08in /  2mm
04:50 43.3 °F /  6.3 °C 40.0 °F /  4.4 °C 30.08in /  1018.5hPa South 2.0mph /  3.2km/h 6.0mph /  9.7km/h 88% 0.08in /  2mm
05:00 43.1 °F /  6.2 °C 40.1 °F /  4.5 °C 30.08in /  1018.5hPa South 3.0mph /  4.8km/h 7.0mph /  11.3km/h 89% 0.09in /  2.3mm
05:10 43.1 °F /  6.2 °C 40.1 °F /  4.5 °C 30.07in /  1018.2hPa South 4.0mph /  6.4km/h 9.0mph /  14.5km/h 89% 0.09in /  2.3mm
05:15 43.1 °F /  6.2 °C 40.1 °F /  4.5 °C 30.07in /  1018.2hPa South 5.0mph /  8km/h 11.0mph /  17.7km/h 89% 0.09in /  2.3mm
05:20 43.2 °F /  6.2 °C 39.9 °F /  4.4 °C 30.07in /  1018.2hPa South 6.0mph /  9.7km/h 11.0mph /  17.7km/h 88% 0.09in /  2.3mm
05:25 43.2 °F /  6.2 °C 39.9 °F /  4.4 °C 30.07in /  1018.2hPa South 7.0mph /  11.3km/h 11.0mph /  17.7km/h 88% 0.09in /  2.3mm
05:30 43.3 °F /  6.3 °C 40.0 °F /  4.4 °C 30.07in /  1018.2hPa South 5.0mph /  8km/h 16.0mph /  25.7km/h 88% 0.09in /  2.3mm
05:35 43.2 °F /  6.2 °C 39.9 °F /  4.4 °C 30.07in /  1018.2hPa SSW 4.0mph /  6.4km/h 16.0mph /  25.7km/h 88% 0.09in /  2.3mm
05:40 43.0 °F /  6.1 °C 39.7 °F /  4.3 °C 30.08in /  1018.5hPa SSW 2.0mph /  3.2km/h 8.0mph /  12.9km/h 88% 0.09in /  2.3mm
05:50 42.7 °F /  5.9 °C 39.4 °F /  4.1 °C 30.08in /  1018.5hPa South 1.0mph /  1.6km/h 7.0mph /  11.3km/h 88% 0.09in /  2.3mm
06:00 42.5 °F /  5.8 °C 39.2 °F /  4 °C 30.08in /  1018.5hPa South 1.0mph /  1.6km/h 7.0mph /  11.3km/h 88% 0.09in /  2.3mm
06:05 42.4 °F /  5.8 °C 39.4 °F /  4.1 °C 30.08in /  1018.5hPa South 3.0mph /  4.8km/h 6.0mph /  9.7km/h 89% 0.09in /  2.3mm
06:10 42.3 °F /  5.7 °C 39.3 °F /  4.1 °C 30.08in /  1018.5hPa South 7.0mph /  11.3km/h 11.0mph /  17.7km/h 89% 0.09in /  2.3mm
06:15 42.2 °F /  5.7 °C 39.2 °F /  4 °C 30.07in /  1018.2hPa SSW 5.0mph /  8km/h 11.0mph /  17.7km/h 89% 0.09in /  2.3mm
06:20 42.1 °F /  5.6 °C 39.1 °F /  3.9 °C 30.06in /  1017.8hPa South 6.0mph /  9.7km/h 11.0mph /  17.7km/h 89% 0.09in /  2.3mm
06:25 42.0 °F /  5.6 °C 39.0 °F /  3.9 °C 30.06in /  1017.8hPa South 9.0mph /  14.5km/h 16.0mph /  25.7km/h 89% 0.09in /  2.3mm
06:30 41.9 °F /  5.5 °C 38.6 °F /  3.7 °C 30.06in /  1017.8hPa South 8.0mph /  12.9km/h 18.0mph /  29km/h 88% 0.09in /  2.3mm
06:35 41.9 °F /  5.5 °C 38.6 °F /  3.7 °C 30.06in /  1017.8hPa SSW 8.0mph /  12.9km/h 18.0mph /  29km/h 88% 0.09in /  2.3mm
06:40 41.8 °F /  5.4 °C 38.8 °F /  3.8 °C 30.07in /  1018.2hPa SSW 6.0mph /  9.7km/h 18.0mph /  29km/h 89% 0.09in /  2.3mm
06:50 41.8 °F /  5.4 °C 38.8 °F /  3.8 °C 30.06in /  1017.8hPa South 5.0mph /  8km/h 15.0mph /  24.1km/h 89% 0.09in /  2.3mm
07:00 41.8 °F /  5.4 °C 38.8 °F /  3.8 °C 30.06in /  1017.8hPa SSW 5.0mph /  8km/h 13.0mph /  20.9km/h 89% 0.09in /  2.3mm
07:10 41.8 °F /  5.4 °C 38.8 °F /  3.8 °C 30.06in /  1017.8hPa SSW 7.0mph /  11.3km/h 15.0mph /  24.1km/h 89% 0.10in /  2.5mm
07:15 41.7 °F /  5.4 °C 38.7 °F /  3.7 °C 30.06in /  1017.8hPa SSW 6.0mph /  9.7km/h 14.0mph /  22.5km/h 89% 0.10in /  2.5mm
07:20 41.7 °F /  5.4 °C 38.7 °F /  3.7 °C 30.07in /  1018.2hPa SSW 5.0mph /  8km/h 15.0mph /  24.1km/h 89% 0.11in /  2.8mm
07:30 41.5 °F /  5.3 °C 38.5 °F /  3.6 °C 30.06in /  1017.8hPa SSW 7.0mph /  11.3km/h 17.0mph /  27.4km/h 89% 0.11in /  2.8mm
07:35 41.4 °F /  5.2 °C 38.4 °F /  3.6 °C 30.06in /  1017.8hPa SSW 7.0mph /  11.3km/h 13.0mph /  20.9km/h 89% 0.12in /  3mm
07:40 41.3 °F /  5.2 °C 38.3 °F /  3.5 °C 30.05in /  1017.5hPa SSW 7.0mph /  11.3km/h 14.0mph /  22.5km/h 89% 0.12in /  3mm
08:00 41.0 °F /  5 °C 38.3 °F /  3.5 °C 30.06in /  1017.8hPa SSW 9.0mph /  14.5km/h 16.0mph /  25.7km/h 90% 0.13in /  3.3mm
08:10 40.9 °F /  4.9 °C 38.2 °F /  3.4 °C 30.06in /  1017.8hPa SSW 8.0mph /  12.9km/h 19.0mph /  30.6km/h 90% 0.15in /  3.8mm
08:15 40.9 °F /  4.9 °C 38.2 °F /  3.4 °C 30.06in /  1017.8hPa SSW 8.0mph /  12.9km/h 16.0mph /  25.7km/h 90% 0.15in /  3.8mm
08:20 40.9 °F /  4.9 °C 38.2 °F /  3.4 °C 30.06in /  1017.8hPa SSW 10.0mph /  16.1km/h 19.0mph /  30.6km/h 90% 0.16in /  4.1mm
08:25 40.9 °F /  4.9 °C 38.2 °F /  3.4 °C 30.05in /  1017.5hPa SSW 10.0mph /  16.1km/h 20.0mph /  32.2km/h 90% 0.17in /  4.3mm
08:30 41.0 °F /  5 °C 39.7 °F /  4.3 °C 30.06in /  1017.8hPa SSW 12.0mph /  19.3km/h 22.0mph /  35.4km/h 95% 0.17in /  4.3mm
08:35 41.0 °F /  5 °C 38.3 °F /  3.5 °C 30.06in /  1017.8hPa SSW 10.0mph /  16.1km/h 22.0mph /  35.4km/h 90% 0.17in /  4.3mm
08:40 41.0 °F /  5 °C 38.3 °F /  3.5 °C 30.05in /  1017.5hPa SSW 10.0mph /  16.1km/h 21.0mph /  33.8km/h 90% 0.17in /  4.3mm
08:45 40.9 °F /  4.9 °C 38.2 °F /  3.4 °C 30.05in /  1017.5hPa SSW 11.0mph /  17.7km/h 21.0mph /  33.8km/h 90% 0.18in /  4.6mm
08:50 40.9 °F /  4.9 °C 38.2 °F /  3.4 °C 30.04in /  1017.2hPa SSW 10.0mph /  16.1km/h 23.0mph /  37km/h 90% 0.19in /  4.8mm
08:55 40.8 °F /  4.9 °C 38.1 °F /  3.4 °C 30.05in /  1017.5hPa SSW 11.0mph /  17.7km/h 23.0mph /  37km/h 90% 0.19in /  4.8mm
09:05 40.7 °F /  4.8 °C 38.0 °F /  3.3 °C 30.05in /  1017.5hPa SSW 11.0mph /  17.7km/h 19.0mph /  30.6km/h 90% 0.21in /  5.3mm
09:10 40.7 °F /  4.8 °C 38.0 °F /  3.3 °C 30.04in /  1017.2hPa SSW 12.0mph /  19.3km/h 21.0mph /  33.8km/h 90% 0.23in /  5.8mm
09:15 40.8 °F /  4.9 °C 38.1 °F /  3.4 °C 30.05in /  1017.5hPa SSW 11.0mph /  17.7km/h 21.0mph /  33.8km/h 90% 0.24in /  6.1mm
09:20 40.8 °F /  4.9 °C 38.1 °F /  3.4 °C 30.05in /  1017.5hPa SSW 10.0mph /  16.1km/h 20.0mph /  32.2km/h 90% 0.25in /  6.4mm
09:25 40.8 °F /  4.9 °C 38.4 °F /  3.6 °C 30.05in /  1017.5hPa South 7.0mph /  11.3km/h 17.0mph /  27.4km/h 91% 0.27in /  6.9mm
09:35 41.0 °F /  5 °C 38.6 °F /  3.7 °C 30.04in /  1017.2hPa SSW 9.0mph /  14.5km/h 21.0mph /  33.8km/h 91% 0.29in /  7.4mm
09:40 40.9 °F /  4.9 °C 38.5 °F /  3.6 °C 30.03in /  1016.8hPa South 9.0mph /  14.5km/h 21.0mph /  33.8km/h 91% 0.29in /  7.4mm
09:50 41.0 °F /  5 °C 38.6 °F /  3.7 °C 30.03in /  1016.8hPa SSW 7.0mph /  11.3km/h 21.0mph /  33.8km/h 91% 0.29in /  7.4mm
09:55 41.1 °F /  5.1 °C 38.7 °F /  3.7 °C 30.03in /  1016.8hPa SSW 10.0mph /  16.1km/h 21.0mph /  33.8km/h 91% 0.30in /  7.6mm
10:00 41.1 °F /  5.1 °C 38.7 °F /  3.7 °C 30.03in /  1016.8hPa SSW 11.0mph /  17.7km/h 21.0mph /  33.8km/h 91% 0.30in /  7.6mm
10:05 41.3 °F /  5.2 °C 38.9 °F /  3.8 °C 30.03in /  1016.8hPa SSW 9.0mph /  14.5km/h 21.0mph /  33.8km/h 91% 0.30in /  7.6mm
10:10 41.5 °F /  5.3 °C 39.1 °F /  3.9 °C 30.03in /  1016.8hPa SSW 10.0mph /  16.1km/h 20.0mph /  32.2km/h 91% 0.30in /  7.6mm
10:15 41.6 °F /  5.3 °C 39.2 °F /  4 °C 30.03in /  1016.8hPa SSW 10.0mph /  16.1km/h 18.0mph /  29km/h 91% 0.30in /  7.6mm
10:20 41.7 °F /  5.4 °C 39.3 °F /  4.1 °C 30.03in /  1016.8hPa SSW 8.0mph /  12.9km/h 17.0mph /  27.4km/h 91% 0.30in /  7.6mm
10:25 41.8 °F /  5.4 °C 39.4 °F /  4.1 °C 30.03in /  1016.8hPa SSW 6.0mph /  9.7km/h 17.0mph /  27.4km/h 91% 0.30in /  7.6mm
10:30 41.8 °F /  5.4 °C 39.4 °F /  4.1 °C 30.03in /  1016.8hPa SSW 7.0mph /  11.3km/h 17.0mph /  27.4km/h 91% 0.30in /  7.6mm
10:40 41.8 °F /  5.4 °C 39.1 °F /  3.9 °C 30.03in /  1016.8hPa SSW 8.0mph /  12.9km/h 16.0mph /  25.7km/h 90% 0.30in /  7.6mm
10:45 41.8 °F /  5.4 °C 39.1 °F /  3.9 °C 30.04in /  1017.2hPa SSW 7.0mph /  11.3km/h 16.0mph /  25.7km/h 90% 0.30in /  7.6mm
10:50 41.9 °F /  5.5 °C 39.5 °F /  4.2 °C 30.04in /  1017.2hPa SSW 7.0mph /  11.3km/h 16.0mph /  25.7km/h 91% 0.30in /  7.6mm
10:55 42.0 °F /  5.6 °C 39.6 °F /  4.2 °C 30.04in /  1017.2hPa SSW 7.0mph /  11.3km/h 16.0mph /  25.7km/h 91% 0.30in /  7.6mm
11:00 42.0 °F /  5.6 °C 39.6 °F /  4.2 °C 30.04in /  1017.2hPa SSW 7.0mph /  11.3km/h 15.0mph /  24.1km/h 91% 0.30in /  7.6mm
11:05 42.1 °F /  5.6 °C 39.4 °F /  4.1 °C 30.03in /  1016.8hPa SSW 9.0mph /  14.5km/h 22.0mph /  35.4km/h 90% 0.30in /  7.6mm
11:10 42.3 °F /  5.7 °C 39.6 °F /  4.2 °C 30.03in /  1016.8hPa SSW 9.0mph /  14.5km/h 22.0mph /  35.4km/h 90% 0.30in /  7.6mm
11:15 42.6 °F /  5.9 °C 40.2 °F /  4.6 °C 30.03in /  1016.8hPa SSW 9.0mph /  14.5km/h 17.0mph /  27.4km/h 91% 0.30in /  7.6mm
11:20 42.7 °F /  5.9 °C 40.0 °F /  4.4 °C 30.03in /  1016.8hPa SSW 10.0mph /  16.1km/h 17.0mph /  27.4km/h 90% 0.30in /  7.6mm
11:25 42.7 °F /  5.9 °C 40.0 °F /  4.4 °C 30.03in /  1016.8hPa SSW 10.0mph /  16.1km/h 20.0mph /  32.2km/h 90% 0.30in /  7.6mm
11:35 42.7 °F /  5.9 °C 40.0 °F /  4.4 °C 30.03in /  1016.8hPa SSW 10.0mph /  16.1km/h 21.0mph /  33.8km/h 90% 0.30in /  7.6mm
11:40 42.6 °F /  5.9 °C 39.9 °F /  4.4 °C 30.03in /  1016.8hPa SSW 7.0mph /  11.3km/h 18.0mph /  29km/h 90% 0.30in /  7.6mm
11:45 42.6 °F /  5.9 °C 39.6 °F /  4.2 °C 30.03in /  1016.8hPa SSW 8.0mph /  12.9km/h 20.0mph /  32.2km/h 89% 0.30in /  7.6mm
11:50 42.5 °F /  5.8 °C 39.5 °F /  4.2 °C 30.03in /  1016.8hPa SSW 8.0mph /  12.9km/h 22.0mph /  35.4km/h 89% 0.30in /  7.6mm
12:00 42.4 °F /  5.8 °C 39.4 °F /  4.1 °C 30.03in /  1016.8hPa SSW 12.0mph /  19.3km/h 26.0mph /  41.8km/h 89% 0.30in /  7.6mm
12:05 42.3 °F /  5.7 °C 39.3 °F /  4.1 °C 30.02in /  1016.5hPa SSW 11.0mph /  17.7km/h 26.0mph /  41.8km/h 89% 0.30in /  7.6mm
12:10 42.3 °F /  5.7 °C 39.3 °F /  4.1 °C 30.03in /  1016.8hPa SSW 11.0mph /  17.7km/h 20.0mph /  32.2km/h 89% 0.30in /  7.6mm
12:15 42.3 °F /  5.7 °C 39.3 °F /  4.1 °C 30.03in /  1016.8hPa SSW 9.0mph /  14.5km/h 20.0mph /  32.2km/h 89% 0.30in /  7.6mm
12:20 42.4 °F /  5.8 °C 39.4 °F /  4.1 °C 30.02in /  1016.5hPa SSW 9.0mph /  14.5km/h 19.0mph /  30.6km/h 89% 0.30in /  7.6mm
12:25 42.4 °F /  5.8 °C 39.4 °F /  4.1 °C 30.02in /  1016.5hPa SSW 9.0mph /  14.5km/h 18.0mph /  29km/h 89% 0.32in /  8.1mm
12:30 42.4 °F /  5.8 °C 39.4 °F /  4.1 °C 30.02in /  1016.5hPa SW 8.0mph /  12.9km/h 15.0mph /  24.1km/h 89% 0.33in /  8.4mm
12:40 42.3 °F /  5.7 °C 39.6 °F /  4.2 °C 30.03in /  1016.8hPa SSW 8.0mph /  12.9km/h 18.0mph /  29km/h 90% 0.36in /  9.1mm
12:45 42.3 °F /  5.7 °C 39.6 °F /  4.2 °C 30.03in /  1016.8hPa SSW 8.0mph /  12.9km/h 18.0mph /  29km/h 90% 0.37in /  9.4mm
12:50 42.3 °F /  5.7 °C 39.6 °F /  4.2 °C 30.03in /  1016.8hPa SSW 10.0mph /  16.1km/h 16.0mph /  25.7km/h 90% 0.37in /  9.4mm
12:55 42.4 °F /  5.8 °C 39.7 °F /  4.3 °C 30.03in /  1016.8hPa SSW 8.0mph /  12.9km/h 16.0mph /  25.7km/h 90% 0.37in /  9.4mm
13:05 42.3 °F /  5.7 °C 39.6 °F /  4.2 °C 30.03in /  1016.8hPa SW 9.0mph /  14.5km/h 16.0mph /  25.7km/h 90% 0.37in /  9.4mm
13:10 42.3 °F /  5.7 °C 39.6 °F /  4.2 °C 30.03in /  1016.8hPa SW 9.0mph /  14.5km/h 16.0mph /  25.7km/h 90% 0.37in /  9.4mm
13:15 42.3 °F /  5.7 °C 39.6 °F /  4.2 °C 30.03in /  1016.8hPa SSW 8.0mph /  12.9km/h 15.0mph /  24.1km/h 90% 0.37in /  9.4mm
13:20 42.2 °F /  5.7 °C 39.5 °F /  4.2 °C 30.03in /  1016.8hPa SSW 9.0mph /  14.5km/h 16.0mph /  25.7km/h 90% 0.37in /  9.4mm
13:25 42.2 °F /  5.7 °C 39.8 °F /  4.3 °C 30.02in /  1016.5hPa SSW 9.0mph /  14.5km/h 17.0mph /  27.4km/h 91% 0.37in /  9.4mm
13:30 42.3 °F /  5.7 °C 39.9 °F /  4.4 °C 30.02in /  1016.5hPa SSW 10.0mph /  16.1km/h 17.0mph /  27.4km/h 91% 0.38in /  9.7mm
13:35 42.3 °F /  5.7 °C 39.9 °F /  4.4 °C 30.02in /  1016.5hPa SSW 8.0mph /  12.9km/h 18.0mph /  29km/h 91% 0.38in /  9.7mm
13:40 42.3 °F /  5.7 °C 39.9 °F /  4.4 °C 30.02in /  1016.5hPa SSW 6.0mph /  9.7km/h 18.0mph /  29km/h 91% 0.39in /  9.9mm
13:45 42.3 °F /  5.7 °C 39.9 °F /  4.4 °C 30.02in /  1016.5hPa SSW 10.0mph /  16.1km/h 19.0mph /  30.6km/h 91% 0.39in /  9.9mm
13:50 42.2 °F /  5.7 °C 39.8 °F /  4.3 °C 30.02in /  1016.5hPa SSW 7.0mph /  11.3km/h 19.0mph /  30.6km/h 91% 0.39in /  9.9mm
13:55 42.2 °F /  5.7 °C 39.8 °F /  4.3 °C 30.02in /  1016.5hPa SSW 7.0mph /  11.3km/h 17.0mph /  27.4km/h 91% 0.39in /  9.9mm
14:00 42.2 °F /  5.7 °C 39.8 °F /  4.3 °C 30.02in /  1016.5hPa SSW 9.0mph /  14.5km/h 16.0mph /  25.7km/h 91% 0.39in /  9.9mm
14:05 42.2 °F /  5.7 °C 40.0 °F /  4.4 °C 30.02in /  1016.5hPa SSW 8.0mph /  12.9km/h 14.0mph /  22.5km/h 92% 0.39in /  9.9mm
14:10 42.2 °F /  5.7 °C 40.0 °F /  4.4 °C 30.02in /  1016.5hPa SSW 5.0mph /  8km/h 14.0mph /  22.5km/h 92% 0.39in /  9.9mm
14:15 42.2 °F /  5.7 °C 40.0 °F /  4.4 °C 30.01in /  1016.1hPa SSW 8.0mph /  12.9km/h 17.0mph /  27.4km/h 92% 0.39in /  9.9mm
14:20 42.3 °F /  5.7 °C 40.1 °F /  4.5 °C 30.01in /  1016.1hPa SSW 8.0mph /  12.9km/h 17.0mph /  27.4km/h 92% 0.39in /  9.9mm
14:25 42.2 °F /  5.7 °C 40.0 °F /  4.4 °C 30.01in /  1016.1hPa SSW 8.0mph /  12.9km/h 15.0mph /  24.1km/h 92% 0.39in /  9.9mm
14:30 42.2 °F /  5.7 °C 40.0 °F /  4.4 °C 30.01in /  1016.1hPa SSW 8.0mph /  12.9km/h 15.0mph /  24.1km/h 92% 0.39in /  9.9mm
14:35 42.3 °F /  5.7 °C 40.4 °F /  4.7 °C 30.01in /  1016.1hPa SSW 9.0mph /  14.5km/h 15.0mph /  24.1km/h 93% 0.39in /  9.9mm
14:40 42.3 °F /  5.7 °C 40.4 °F /  4.7 °C 30.01in /  1016.1hPa SSW 8.0mph /  12.9km/h 15.0mph /  24.1km/h 93% 0.39in /  9.9mm
14:45 42.3 °F /  5.7 °C 40.4 °F /  4.7 °C 30.01in /  1016.1hPa SSW 9.0mph /  14.5km/h 20.0mph /  32.2km/h 93% 0.39in /  9.9mm
14:50 42.4 °F /  5.8 °C 40.5 °F /  4.7 °C 30.01in /  1016.1hPa SSW 7.0mph /  11.3km/h 20.0mph /  32.2km/h 93% 0.39in /  9.9mm
15:00 42.6 °F /  5.9 °C 40.7 °F /  4.8 °C 30.01in /  1016.1hPa SSW 7.0mph /  11.3km/h 14.0mph /  22.5km/h 93% 0.39in /  9.9mm
15:05 42.8 °F /  6 °C 40.9 °F /  4.9 °C 30.01in /  1016.1hPa SSW 7.0mph /  11.3km/h 14.0mph /  22.5km/h 93% 0.39in /  9.9mm
15:10 42.8 °F /  6 °C 40.9 °F /  4.9 °C 30.02in /  1016.5hPa SSW 6.0mph /  9.7km/h 12.0mph /  19.3km/h 93% 0.39in /  9.9mm
15:15 42.9 °F /  6.1 °C 41.0 °F /  5 °C 30.02in /  1016.5hPa SSW 4.0mph /  6.4km/h 12.0mph /  19.3km/h 93% 0.39in /  9.9mm
15:20 42.8 °F /  6 °C 40.9 °F /  4.9 °C 30.02in /  1016.5hPa SSW 3.0mph /  4.8km/h 12.0mph /  19.3km/h 93% 0.39in /  9.9mm
15:25 43.0 °F /  6.1 °C 41.1 °F /  5.1 °C 30.03in /  1016.8hPa SSW 2.0mph /  3.2km/h 12.0mph /  19.3km/h 93% 0.39in /  9.9mm
15:30 42.9 °F /  6.1 °C 41.0 °F /  5 °C 30.03in /  1016.8hPa Calm   7.0mph /  11.3km/h 93% 0.39in /  9.9mm
15:35 42.9 °F /  6.1 °C 41.0 °F /  5 °C 30.03in /  1016.8hPa SSW 3.0mph /  4.8km/h 8.0mph /  12.9km/h 93% 0.39in /  9.9mm
15:40 42.8 °F /  6 °C 40.9 °F /  4.9 °C 30.03in /  1016.8hPa SSW 4.0mph /  6.4km/h 8.0mph /  12.9km/h 93% 0.39in /  9.9mm
15:50 42.9 °F /  6.1 °C 41.0 °F /  5 °C 30.03in /  1016.8hPa SW 3.0mph /  4.8km/h 8.0mph /  12.9km/h 93% 0.39in /  9.9mm
15:55 43.1 °F /  6.2 °C 41.2 °F /  5.1 °C 30.03in /  1016.8hPa SW 1.0mph /  1.6km/h 8.0mph /  12.9km/h 93% 0.39in /  9.9mm
16:00 43.1 °F /  6.2 °C 41.2 °F /  5.1 °C 30.03in /  1016.8hPa SW 2.0mph /  3.2km/h 6.0mph /  9.7km/h 93% 0.39in /  9.9mm
16:05 43.2 °F /  6.2 °C 41.3 °F /  5.2 °C 30.03in /  1016.8hPa SW 1.0mph /  1.6km/h 6.0mph /  9.7km/h 93% 0.39in /  9.9mm
16:10 43.1 °F /  6.2 °C 41.2 °F /  5.1 °C 30.03in /  1016.8hPa Calm   5.0mph /  8km/h 93% 0.39in /  9.9mm
16:15 43.2 °F /  6.2 °C 41.3 °F /  5.2 °C 30.03in /  1016.8hPa Calm   5.0mph /  8km/h 93% 0.39in /  9.9mm
16:20 43.2 °F /  6.2 °C 41.3 °F /  5.2 °C 30.04in /  1017.2hPa Calm   3.0mph /  4.8km/h 93% 0.39in /  9.9mm
16:25 43.3 °F /  6.3 °C 41.4 °F /  5.2 °C 30.04in /  1017.2hPa Calm   3.0mph /  4.8km/h 93% 0.39in /  9.9mm
16:30 43.3 °F /  6.3 °C 41.4 °F /  5.2 °C 30.04in /  1017.2hPa SW 3.0mph /  4.8km/h 5.0mph /  8km/h 93% 0.39in /  9.9mm
16:40 43.3 °F /  6.3 °C 41.4 °F /  5.2 °C 30.05in /  1017.5hPa Calm   6.0mph /  9.7km/h 93% 0.39in /  9.9mm
16:45 43.3 °F /  6.3 °C 41.4 °F /  5.2 °C 30.05in /  1017.5hPa Calm     93% 0.39in /  9.9mm
16:55 43.2 °F /  6.2 °C 41.3 °F /  5.2 °C 30.05in /  1017.5hPa Calm     93% 0.39in /  9.9mm
17:00 43.2 °F /  6.2 °C 41.3 °F /  5.2 °C 30.05in /  1017.5hPa Calm     93% 0.39in /  9.9mm
17:10 43.2 °F /  6.2 °C 41.3 °F /  5.2 °C 30.06in /  1017.8hPa Calm   2.0mph /  3.2km/h 93% 0.39in /  9.9mm
17:15 43.2 °F /  6.2 °C 41.3 °F /  5.2 °C 30.06in /  1017.8hPa SW 2.0mph /  3.2km/h 4.0mph /  6.4km/h 93% 0.39in /  9.9mm
17:20 43.1 °F /  6.2 °C 41.2 °F /  5.1 °C 30.06in /  1017.8hPa SW 1.0mph /  1.6km/h 4.0mph /  6.4km/h 93% 0.39in /  9.9mm
17:25 43.1 °F /  6.2 °C 41.2 °F /  5.1 °C 30.06in /  1017.8hPa Calm   4.0mph /  6.4km/h 93% 0.39in /  9.9mm
17:35 43.0 °F /  6.1 °C 41.1 °F /  5.1 °C 30.07in /  1018.2hPa SW 1.0mph /  1.6km/h 6.0mph /  9.7km/h 93% 0.39in /  9.9mm
17:40 43.0 °F /  6.1 °C 41.1 °F /  5.1 °C 30.07in /  1018.2hPa Calm   6.0mph /  9.7km/h 93% 0.39in /  9.9mm
17:45 43.0 °F /  6.1 °C 41.4 °F /  5.2 °C 30.07in /  1018.2hPa Calm   6.0mph /  9.7km/h 94% 0.39in /  9.9mm
17:50 43.0 °F /  6.1 °C 41.4 °F /  5.2 °C 30.07in /  1018.2hPa Calm     94% 0.39in /  9.9mm
17:55 43.0 °F /  6.1 °C 41.4 °F /  5.2 °C 30.07in /  1018.2hPa Calm     94% 0.39in /  9.9mm
18:00 43.0 °F /  6.1 °C 41.4 °F /  5.2 °C 30.07in /  1018.2hPa Calm     94% 0.39in /  9.9mm
18:05 43.0 °F /  6.1 °C 41.4 °F /  5.2 °C 30.08in /  1018.5hPa Calm     94% 0.39in /  9.9mm
18:10 43.0 °F /  6.1 °C 41.4 °F /  5.2 °C 30.08in /  1018.5hPa Calm     94% 0.39in /  9.9mm
18:15 43.0 °F /  6.1 °C 41.4 °F /  5.2 °C 30.08in /  1018.5hPa Calm     94% 0.39in /  9.9mm
18:20 43.0 °F /  6.1 °C 41.4 °F /  5.2 °C 30.08in /  1018.5hPa Calm     94% 0.39in /  9.9mm
18:30 42.9 °F /  6.1 °C 41.3 °F /  5.2 °C 30.08in /  1018.5hPa Calm     94% 0.39in /  9.9mm
18:40 43.0 °F /  6.1 °C 41.4 °F /  5.2 °C 30.08in /  1018.5hPa Calm     94% 0.39in /  9.9mm
18:50 42.9 °F /  6.1 °C 41.3 °F /  5.2 °C 30.09in /  1018.8hPa Calm     94% 0.39in /  9.9mm
18:55 42.9 °F /  6.1 °C 41.3 °F /  5.2 °C 30.09in /  1018.8hPa Calm     94% 0.39in /  9.9mm
19:00 42.8 °F /  6 °C 41.2 °F /  5.1 °C 30.09in /  1018.8hPa Calm     94% 0.39in /  9.9mm
19:05 42.8 °F /  6 °C 41.2 °F /  5.1 °C 30.10in /  1019.2hPa Calm     94% 0.39in /  9.9mm
19:10 42.8 °F /  6 °C 41.2 °F /  5.1 °C 30.10in /  1019.2hPa Calm     94% 0.39in /  9.9mm
19:15 42.8 °F /  6 °C 41.2 °F /  5.1 °C 30.10in /  1019.2hPa Calm     94% 0.39in /  9.9mm
19:20 42.8 °F /  6 °C 41.2 °F /  5.1 °C 30.11in /  1019.5hPa Calm     94% 0.39in /  9.9mm
19:25 42.8 °F /  6 °C 41.2 °F /  5.1 °C 30.11in /  1019.5hPa Calm     94% 0.40in /  10.2mm
19:30 42.7 °F /  5.9 °C 41.1 °F /  5.1 °C 30.11in /  1019.5hPa Calm   1.0mph /  1.6km/h 94% 0.40in /  10.2mm
19:35 42.7 °F /  5.9 °C 41.1 °F /  5.1 °C 30.11in /  1019.5hPa Calm   1.0mph /  1.6km/h 94% 0.40in /  10.2mm
19:40 42.6 °F /  5.9 °C 41.0 °F /  5 °C 30.11in /  1019.5hPa SW 1.0mph /  1.6km/h 3.0mph /  4.8km/h 94% 0.40in /  10.2mm
19:45 42.5 °F /  5.8 °C 40.9 °F /  4.9 °C 30.11in /  1019.5hPa SW 2.0mph /  3.2km/h 4.0mph /  6.4km/h 94% 0.40in /  10.2mm
19:55 42.2 °F /  5.7 °C 40.6 °F /  4.8 °C 30.12in /  1019.9hPa Calm   4.0mph /  6.4km/h 94% 0.41in /  10.4mm
20:00 41.9 °F /  5.5 °C 40.3 °F /  4.6 °C 30.13in /  1020.2hPa Calm   2.0mph /  3.2km/h 94% 0.41in /  10.4mm
20:05 41.6 °F /  5.3 °C 40.0 °F /  4.4 °C 30.13in /  1020.2hPa SW 1.0mph /  1.6km/h 4.0mph /  6.4km/h 94% 0.41in /  10.4mm
20:10 41.4 °F /  5.2 °C 39.8 °F /  4.3 °C 30.13in /  1020.2hPa SW 2.0mph /  3.2km/h 4.0mph /  6.4km/h 94% 0.41in /  10.4mm
20:15 41.2 °F /  5.1 °C 39.6 °F /  4.2 °C 30.13in /  1020.2hPa WSW 2.0mph /  3.2km/h 4.0mph /  6.4km/h 94% 0.41in /  10.4mm
20:20 41.1 °F /  5.1 °C 39.5 °F /  4.2 °C 30.13in /  1020.2hPa NW 1.0mph /  1.6km/h 4.0mph /  6.4km/h 94% 0.41in /  10.4mm
20:30 40.9 °F /  4.9 °C 39.3 °F /  4.1 °C 30.13in /  1020.2hPa Calm     94% 0.41in /  10.4mm
20:35 40.9 °F /  4.9 °C 39.3 °F /  4.1 °C 30.13in /  1020.2hPa Calm     94% 0.41in /  10.4mm
20:40 40.9 °F /  4.9 °C 39.3 °F /  4.1 °C 30.13in /  1020.2hPa Calm     94% 0.41in /  10.4mm
20:50 40.7 °F /  4.8 °C 39.1 °F /  3.9 °C 30.14in /  1020.5hPa Calm   2.0mph /  3.2km/h 94% 0.41in /  10.4mm
20:55 40.6 °F /  4.8 °C 39.0 °F /  3.9 °C 30.15in /  1020.9hPa Calm   2.0mph /  3.2km/h 94% 0.41in /  10.4mm
21:00 40.6 °F /  4.8 °C 39.0 °F /  3.9 °C 30.15in /  1020.9hPa Calm   2.0mph /  3.2km/h 94% 0.41in /  10.4mm
21:05 40.5 °F /  4.7 °C 38.9 °F /  3.8 °C 30.16in /  1021.2hPa North 1.0mph /  1.6km/h 4.0mph /  6.4km/h 94% 0.41in /  10.4mm
21:10 40.6 °F /  4.8 °C 39.0 °F /  3.9 °C 30.16in /  1021.2hPa Calm   4.0mph /  6.4km/h 94% 0.41in /  10.4mm
21:15 40.5 °F /  4.7 °C 38.9 °F /  3.8 °C 30.17in /  1021.6hPa Calm   2.0mph /  3.2km/h 94% 0.41in /  10.4mm
21:20 40.4 °F /  4.7 °C 38.8 °F /  3.8 °C 30.18in /  1021.9hPa NE 1.0mph /  1.6km/h 2.0mph /  3.2km/h 94% 0.41in /  10.4mm
21:25 40.4 °F /  4.7 °C 38.8 °F /  3.8 °C 30.18in /  1021.9hPa North 1.0mph /  1.6km/h 4.0mph /  6.4km/h 94% 0.41in /  10.4mm
21:30 40.2 °F /  4.6 °C 38.9 °F /  3.8 °C 30.18in /  1021.9hPa North 2.0mph /  3.2km/h 7.0mph /  11.3km/h 95% 0.41in /  10.4mm
21:35 39.8 °F /  4.3 °C 38.2 °F /  3.4 °C 30.18in /  1021.9hPa North 2.0mph /  3.2km/h 7.0mph /  11.3km/h 94% 0.41in /  10.4mm
21:40 39.5 °F /  4.2 °C 37.9 °F /  3.3 °C 30.18in /  1021.9hPa NNE 1.0mph /  1.6km/h 6.0mph /  9.7km/h 94% 0.41in /  10.4mm
21:45 39.3 °F /  4.1 °C 37.7 °F /  3.2 °C 30.19in /  1022.2hPa North 3.0mph /  4.8km/h 8.0mph /  12.9km/h 94% 0.41in /  10.4mm
21:50 39.2 °F /  4 °C 37.6 °F /  3.1 °C 30.19in /  1022.2hPa North 2.0mph /  3.2km/h 10.0mph /  16.1km/h 94% 0.41in /  10.4mm
21:55 39.0 °F /  3.9 °C 37.4 °F /  3 °C 30.20in /  1022.6hPa NNE 1.0mph /  1.6km/h 10.0mph /  16.1km/h 94% 0.41in /  10.4mm
22:00 38.9 °F /  3.8 °C 37.3 °F /  2.9 °C 30.20in /  1022.6hPa North 3.0mph /  4.8km/h 6.0mph /  9.7km/h 94% 0.41in /  10.4mm
22:05 38.8 °F /  3.8 °C 37.2 °F /  2.9 °C 30.20in /  1022.6hPa North 2.0mph /  3.2km/h 6.0mph /  9.7km/h 94% 0.41in /  10.4mm
22:10 38.7 °F /  3.7 °C 37.1 °F /  2.8 °C 30.20in /  1022.6hPa Calm   6.0mph /  9.7km/h 94% 0.41in /  10.4mm
22:15 38.7 °F /  3.7 °C 37.1 °F /  2.8 °C 30.20in /  1022.6hPa Calm   6.0mph /  9.7km/h 94% 0.41in /  10.4mm
22:20 38.6 °F /  3.7 °C 37.0 °F /  2.8 °C 30.20in /  1022.6hPa NNW 1.0mph /  1.6km/h 6.0mph /  9.7km/h 94% 0.41in /  10.4mm
22:25 38.6 °F /  3.7 °C 37.0 °F /  2.8 °C 30.21in /  1022.9hPa Calm   5.0mph /  8km/h 94% 0.41in /  10.4mm
22:30 38.6 °F /  3.7 °C 37.0 °F /  2.8 °C 30.21in /  1022.9hPa Calm   4.0mph /  6.4km/h 94% 0.41in /  10.4mm
22:35 38.6 °F /  3.7 °C 37.0 °F /  2.8 °C 30.21in /  1022.9hPa North 2.0mph /  3.2km/h 5.0mph /  8km/h 94% 0.41in /  10.4mm
22:40 38.7 °F /  3.7 °C 37.4 °F /  3 °C 30.21in /  1022.9hPa NW 1.0mph /  1.6km/h 5.0mph /  8km/h 95% 0.41in /  10.4mm
22:50 38.7 °F /  3.7 °C 37.4 °F /  3 °C 30.21in /  1022.9hPa Calm   3.0mph /  4.8km/h 95% 0.41in /  10.4mm
22:55 38.6 °F /  3.7 °C 37.3 °F /  2.9 °C 30.20in /  1022.6hPa Calm   3.0mph /  4.8km/h 95% 0.41in /  10.4mm
23:00 38.6 °F /  3.7 °C 37.3 °F /  2.9 °C 30.20in /  1022.6hPa Calm     95% 0.41in /  10.4mm
23:05 38.6 °F /  3.7 °C 37.3 °F /  2.9 °C 30.20in /  1022.6hPa Calm   1.0mph /  1.6km/h 95% 0.41in /  10.4mm
23:10 38.5 °F /  3.6 °C 37.2 °F /  2.9 °C 30.21in /  1022.9hPa Calm   1.0mph /  1.6km/h 95% 0.41in /  10.4mm
23:15 38.5 °F /  3.6 °C 37.2 °F /  2.9 °C 30.20in /  1022.6hPa Calm     95% 0.41in /  10.4mm
23:20 38.5 °F /  3.6 °C 37.2 °F /  2.9 °C 30.20in /  1022.6hPa Calm   3.0mph /  4.8km/h 95% 0.41in /  10.4mm
23:25 38.4 °F /  3.6 °C 37.1 °F /  2.8 °C 30.20in /  1022.6hPa Calm   3.0mph /  4.8km/h 95% 0.41in /  10.4mm
23:30 38.4 °F /  3.6 °C 37.1 °F /  2.8 °C 30.20in /  1022.6hPa Calm     95% 0.41in /  10.4mm
23:35 38.4 °F /  3.6 °C 37.1 °F /  2.8 °C 30.21in /  1022.9hPa Calm     95% 0.41in /  10.4mm
23:45 38.4 °F /  3.6 °C 37.1 °F /  2.8 °C 30.22in /  1023.2hPa Calm     95% 0.41in /  10.4mm
23:50 38.3 °F /  3.5 °C 37.0 °F /  2.8 °C 30.22in /  1023.2hPa Calm   1.0mph /  1.6km/h 95% 0.41in /  10.4mm
Westford Weather
Compliments of Weather Underground

 
 
Current Radar Loop:

Copyright © WestfordWeather.net 2007-2014. All rights reserved.